createdAt,value
2022-10-08T00:04:07.109Z,99462.95
2022-10-08T00:09:09.924Z,99460.52
2022-10-08T00:14:13.123Z,99456.50
2022-10-08T00:19:16.429Z,99452.14
2022-10-08T00:24:21.317Z,99448.61
2022-10-08T00:29:24.614Z,99439.91
2022-10-08T00:34:27.772Z,99433.73
2022-10-08T00:39:30.554Z,99429.89
2022-10-08T00:44:57.812Z,99432.05
2022-10-08T00:50:05.293Z,99423.46
2022-10-08T00:55:10.088Z,99421.85
2022-10-08T01:00:25.694Z,99419.31
2022-10-08T01:05:41.073Z,99413.86
2022-10-08T01:10:58.648Z,99412.32
2022-10-08T01:16:39.044Z,99408.29
2022-10-08T01:21:49.773Z,99404.41
2022-10-08T01:27:20.825Z,99401.55
2022-10-08T01:32:35.143Z,99396.46
2022-10-08T01:37:41.964Z,99390.83
2022-10-08T01:42:46.344Z,99389.38
2022-10-08T01:47:51.161Z,99384.79
2022-10-08T01:53:00.828Z,99386.08
2022-10-08T01:58:08.431Z,99380.27
2022-10-08T02:03:11.442Z,99379.05
2022-10-08T02:08:14.504Z,99379.59
2022-10-08T02:13:18.140Z,99373.55
2022-10-08T02:18:35.714Z,99369.63
2022-10-08T02:23:46.295Z,99363.35
2022-10-08T02:29:01.428Z,99362.88
2022-10-08T02:34:11.881Z,99363.15
2022-10-08T02:39:19.246Z,99365.02
2022-10-08T02:44:37.041Z,99365.94
2022-10-08T02:49:43.709Z,99364.84
2022-10-08T02:54:50.483Z,99366.02
2022-10-08T02:59:53.608Z,99372.13
2022-10-08T03:05:01.714Z,99370.48
2022-10-08T03:10:07.076Z,99368.52
2022-10-08T03:15:13.294Z,99370.46
2022-10-08T03:20:16.368Z,99368.20
2022-10-08T03:25:19.233Z,99366.14
2022-10-08T03:30:22.273Z,99362.32
2022-10-08T03:35:25.331Z,99363.85
2022-10-08T03:40:28.372Z,99363.17
2022-10-08T03:45:31.346Z,99367.33
2022-10-08T03:50:34.191Z,99364.55
2022-10-08T03:55:37.119Z,99363.91
2022-10-08T04:00:40.914Z,99362.85
2022-10-08T04:05:49.388Z,99356.49
2022-10-08T04:10:53.370Z,99354.50
2022-10-08T04:16:01.445Z,99356.19
2022-10-08T04:21:07.488Z,99358.20
2022-10-08T04:26:13.033Z,99358.20
2022-10-08T04:31:21.978Z,99359.19
2022-10-08T04:36:25.829Z,99356.95
2022-10-08T04:41:28.913Z,99360.15
2022-10-08T04:46:31.913Z,99357.45
2022-10-08T04:51:34.849Z,99349.86
2022-10-08T04:56:37.795Z,99346.23
2022-10-08T05:01:41.238Z,99352.86
2022-10-08T05:06:44.185Z,99351.95
2022-10-08T05:11:47.112Z,99344.08
2022-10-08T05:16:49.959Z,99349.13
2022-10-08T05:21:52.771Z,99349.98
2022-10-08T05:26:59.377Z,99356.38
2022-10-08T05:32:03.897Z,99363.79
2022-10-08T05:37:06.782Z,99371.73
2022-10-08T05:42:09.915Z,99375.27
2022-10-08T05:47:12.781Z,99376.45
2022-10-08T05:52:15.864Z,99382.11
2022-10-08T05:57:18.847Z,99388.97
2022-10-08T06:02:22.353Z,99391.11
2022-10-08T06:07:25.371Z,99388.51
2022-10-08T06:12:28.385Z,99393.66
2022-10-08T06:17:32.605Z,99391.02
2022-10-08T06:22:35.927Z,99393.00
2022-10-08T06:27:38.777Z,99393.39
2022-10-08T06:32:41.579Z,99388.27
2022-10-08T06:37:48.451Z,99391.35
2022-10-08T06:42:52.026Z,99392.27
2022-10-08T06:47:54.905Z,99394.71
2022-10-08T06:52:57.786Z,99396.92
2022-10-08T06:58:02.033Z,99394.55
2022-10-08T07:03:05.149Z,99394.47
2022-10-08T07:08:07.981Z,99392.21
2022-10-08T07:13:10.873Z,99391.84
2022-10-08T07:18:13.845Z,99390.45
2022-10-08T07:23:16.968Z,99385.60
2022-10-08T07:28:20.010Z,99371.65
2022-10-08T07:33:23.017Z,99378.94
2022-10-08T07:38:25.827Z,99375.77
2022-10-08T07:43:28.675Z,99370.98
2022-10-08T07:48:34.018Z,99367.15
2022-10-08T07:53:38.047Z,99364.56
2022-10-08T07:58:41.963Z,99362.80
2022-10-08T08:03:45.347Z,99361.58
2022-10-08T08:08:48.302Z,99358.64
2022-10-08T08:13:52.249Z,99358.21
2022-10-08T08:18:57.935Z,99351.92
2022-10-08T08:24:06.106Z,99348.98
2022-10-08T08:29:14.884Z,99345.17
2022-10-08T08:34:24.385Z,99349.13
2022-10-08T08:39:28.700Z,99351.23
2022-10-08T08:44:43.660Z,99353.61
2022-10-08T08:49:52.453Z,99351.09
2022-10-08T08:54:55.540Z,99346.88
2022-10-08T09:00:07.563Z,99339.27
2022-10-08T09:05:17.343Z,99337.45
2022-10-08T09:10:29.413Z,99336.35
2022-10-08T09:15:37.097Z,99334.10
2022-10-08T09:20:41.063Z,99331.53
2022-10-08T09:26:08.155Z,99328.97
2022-10-08T09:31:23.096Z,99320.79
2022-10-08T09:36:31.499Z,99327.15
2022-10-08T09:41:34.428Z,99319.36
2022-10-08T09:46:37.513Z,99317.80
2022-10-08T09:51:43.019Z,99311.11
2022-10-08T09:56:53.977Z,99303.41
2022-10-08T10:01:58.179Z,99297.30
2022-10-08T10:07:01.551Z,99287.69
2022-10-08T10:12:17.591Z,99282.69
2022-10-08T10:17:38.587Z,99276.30
2022-10-08T10:22:50.480Z,99273.22
2022-10-08T10:28:02.892Z,99264.88
2022-10-08T10:33:15.886Z,99260.71
2022-10-08T10:38:27.777Z,99257.89
2022-10-08T10:43:49.501Z,99253.00
2022-10-08T10:48:52.586Z,99247.70
2022-10-08T10:54:16.342Z,99239.27
2022-10-08T10:59:45.399Z,99233.77
2022-10-08T11:05:19.312Z,99230.51
2022-10-08T11:10:49.025Z,99219.64
2022-10-08T11:16:05.945Z,99213.86
2022-10-08T11:21:17.864Z,99209.94
2022-10-08T11:26:37.969Z,99205.17
2022-10-08T11:31:44.346Z,99197.65
2022-10-08T11:37:15.055Z,99188.27
2022-10-08T11:42:29.127Z,99184.98
2022-10-08T11:47:36.323Z,99186.98
2022-10-08T11:52:39.407Z,99187.09
2022-10-08T11:58:06.743Z,99179.58
2022-10-08T12:03:40.331Z,99177.30
2022-10-08T12:09:21.480Z,99169.78
2022-10-08T12:14:24.307Z,99158.95
2022-10-08T12:19:32.688Z,99152.36
2022-10-08T12:24:38.341Z,99145.69
2022-10-08T12:30:03.429Z,99144.93
2022-10-08T12:35:26.328Z,99145.70
2022-10-08T12:40:44.070Z,99142.08
2022-10-08T12:45:55.659Z,99136.55
2022-10-08T12:51:30.304Z,99141.35
2022-10-08T12:56:33.158Z,99134.13
2022-10-08T13:01:36.443Z,99135.96
2022-10-08T13:06:39.457Z,99131.49
2022-10-08T13:11:42.798Z,99127.79
2022-10-08T13:16:47.406Z,99123.51
2022-10-08T13:21:58.971Z,99119.45
2022-10-08T13:27:02.098Z,99119.25
2022-10-08T13:32:18.485Z,99118.75
2022-10-08T13:37:21.348Z,99118.82
2022-10-08T13:42:28.603Z,99118.91
2022-10-08T13:47:31.467Z,99113.30
2022-10-08T13:52:35.431Z,99114.54
2022-10-08T13:57:38.282Z,99111.52
2022-10-08T14:02:41.247Z,99109.72
2022-10-08T14:07:46.554Z,99105.64
2022-10-08T14:12:49.765Z,99109.83
2022-10-08T14:17:53.585Z,99103.82
2022-10-08T14:22:56.449Z,99105.19
2022-10-08T14:28:00.054Z,99103.38
2022-10-08T14:33:04.753Z,99102.51
2022-10-08T14:38:10.596Z,99102.28
2022-10-08T14:43:13.463Z,99104.23
2022-10-08T14:48:16.666Z,99105.48
2022-10-08T14:53:19.523Z,99102.83
2022-10-08T14:58:22.455Z,99103.30
2022-10-08T15:03:26.206Z,99103.78
2022-10-08T15:08:29.307Z,99102.83
2022-10-08T15:13:32.656Z,99105.83
2022-10-08T15:18:35.890Z,99113.82
2022-10-08T15:23:38.752Z,99122.13
2022-10-08T15:28:43.374Z,99122.28
2022-10-08T15:33:48.829Z,99122.58
2022-10-08T15:39:18.051Z,99131.55
2022-10-08T15:44:25.308Z,99142.00
2022-10-08T15:49:37.215Z,99146.98
2022-10-08T15:54:41.399Z,99150.34
2022-10-08T15:59:44.450Z,99153.30
2022-10-08T16:04:47.924Z,99159.15
2022-10-08T16:09:51.144Z,99163.60
2022-10-08T16:14:54.111Z,99168.33
2022-10-08T16:19:57.558Z,99169.18
2022-10-08T16:25:00.477Z,99176.27
2022-10-08T16:30:04.160Z,99178.90
2022-10-08T16:35:07.422Z,99182.83
2022-10-08T16:40:10.949Z,99186.30
2022-10-08T16:45:13.938Z,99186.52
2022-10-08T16:50:20.075Z,99192.77
2022-10-08T16:55:23.097Z,99198.11
2022-10-08T17:00:26.087Z,99200.27
2022-10-08T17:05:29.299Z,99204.06
2022-10-08T17:10:32.540Z,99211.06
2022-10-08T17:15:36.975Z,99207.27
2022-10-08T17:20:41.349Z,99216.54
2022-10-08T17:25:44.253Z,99217.92
2022-10-08T17:30:47.197Z,99219.89
2022-10-08T17:35:59.219Z,99225.08
2022-10-08T17:41:14.256Z,99232.56
2022-10-08T17:46:28.551Z,99231.77
2022-10-08T17:51:32.656Z,99236.77
2022-10-08T17:56:35.664Z,99238.26
2022-10-08T18:01:41.434Z,99248.74
2022-10-08T18:06:48.809Z,99253.14
2022-10-08T18:11:53.571Z,99256.20
2022-10-08T18:16:57.549Z,99263.21
2022-10-08T18:22:00.564Z,99261.25
2022-10-08T18:27:06.613Z,99262.58
2022-10-08T18:32:09.525Z,99264.74
2022-10-08T18:37:12.447Z,99270.87
2022-10-08T18:42:15.315Z,99271.09
2022-10-08T18:47:18.204Z,99272.15
2022-10-08T18:52:27.240Z,99270.44
2022-10-08T18:57:30.299Z,99268.95
2022-10-08T19:02:33.417Z,99277.15
2022-10-08T19:07:36.569Z,99281.98
2022-10-08T19:12:39.499Z,99292.89
2022-10-08T19:17:42.440Z,99300.21
2022-10-08T19:22:45.931Z,99309.48
2022-10-08T19:27:49.066Z,99309.48
2022-10-08T19:32:52.348Z,99318.92
2022-10-08T19:37:55.248Z,99326.19
2022-10-08T19:42:58.174Z,99327.28
2022-10-08T19:48:00.997Z,99328.70
2022-10-08T19:53:04.413Z,99336.41
2022-10-08T19:58:07.518Z,99346.04
2022-10-08T20:03:10.438Z,99351.24
2022-10-08T20:08:13.356Z,99353.50
2022-10-08T20:13:16.236Z,99358.92
2022-10-08T20:18:19.137Z,99370.88
2022-10-08T20:23:22.288Z,99371.92
2022-10-08T20:28:25.235Z,99377.96
2022-10-08T20:33:28.203Z,99381.70
2022-10-08T20:38:31.075Z,99388.35
2022-10-08T20:43:36.558Z,99393.67
2022-10-08T20:48:41.394Z,99390.44
2022-10-08T20:53:49.319Z,99396.77
2022-10-08T20:58:52.907Z,99404.50
2022-10-08T21:03:56.289Z,99409.58
2022-10-08T21:08:59.539Z,99418.79
2022-10-08T21:14:03.687Z,99422.56
2022-10-08T21:19:12.734Z,99420.19
2022-10-08T21:24:15.826Z,99420.31
2022-10-08T21:29:18.887Z,99422.95
2022-10-08T21:34:21.886Z,99426.82
2022-10-08T21:39:24.729Z,99428.26
2022-10-08T21:44:27.632Z,99421.60
2022-10-08T21:49:30.689Z,99425.11
2022-10-08T21:54:33.977Z,99431.15
2022-10-08T21:59:37.187Z,99430.71
2022-10-08T22:04:40.279Z,99429.88
2022-10-08T22:09:43.131Z,99431.79
2022-10-08T22:14:46.194Z,99442.95
2022-10-08T22:19:49.220Z,99446.23
2022-10-08T22:24:54.703Z,99452.41
2022-10-08T22:29:57.607Z,99464.19
2022-10-08T22:35:00.438Z,99461.41
2022-10-08T22:40:03.972Z,99463.23
2022-10-08T22:45:07.461Z,99466.67
2022-10-08T22:50:10.427Z,99472.48
2022-10-08T22:55:14.337Z,99477.44
2022-10-08T23:00:17.315Z,99480.98
2022-10-08T23:05:20.294Z,99486.83
2022-10-08T23:10:24.107Z,99481.33
2022-10-08T23:15:26.950Z,99473.19
2022-10-08T23:20:29.820Z,99479.72
2022-10-08T23:25:32.806Z,99487.13
2022-10-08T23:30:43.113Z,99495.79
2022-10-08T23:35:54.599Z,99510.86
2022-10-08T23:41:02.442Z,99526.45
2022-10-08T23:46:07.604Z,99536.22
2022-10-08T23:51:12.562Z,99546.70
2022-10-08T23:56:15.896Z,99550.14
